sensor_id;sensor_type;location;lat;lon;timestamp;pressure;altitude;pressure_sealevel;temperature
74533;BMP180;63012;51.096;-115.366;2022-11-20T00:01:30;87249.80;;;-2.90
74533;BMP180;63012;51.096;-115.366;2022-11-20T00:03:58;87254.20;;;-3.00
74533;BMP180;63012;51.096;-115.366;2022-11-20T00:06:27;87248.60;;;-3.08
74533;BMP180;63012;51.096;-115.366;2022-11-20T00:08:59;87272.00;;;-3.10
74533;BMP180;63012;51.096;-115.366;2022-11-20T00:11:29;87261.40;;;-3.20
74533;BMP180;63012;51.096;-115.366;2022-11-20T00:14:00;87273.80;;;-3.20
74533;BMP180;63012;51.096;-115.366;2022-11-20T00:16:30;87280.00;;;-3.30
74533;BMP180;63012;51.096;-115.366;2022-11-20T00:18:57;87285.20;;;-3.38
74533;BMP180;63012;51.096;-115.366;2022-11-20T00:21:26;87280.20;;;-3.40
74533;BMP180;63012;51.096;-115.366;2022-11-20T00:23:57;87289.00;;;-3.42
74533;BMP180;63012;51.096;-115.366;2022-11-20T00:26:26;87290.60;;;-3.50
74533;BMP180;63012;51.096;-115.366;2022-11-20T00:28:57;87309.40;;;-3.56
74533;BMP180;63012;51.096;-115.366;2022-11-20T00:31:25;87300.00;;;-3.58
74533;BMP180;63012;51.096;-115.366;2022-11-20T00:33:53;87305.80;;;-3.58
74533;BMP180;63012;51.096;-115.366;2022-11-20T00:36:24;87302.20;;;-3.60
74533;BMP180;63012;51.096;-115.366;2022-11-20T00:38:58;87311.60;;;-3.60
74533;BMP180;63012;51.096;-115.366;2022-11-20T00:41:27;87305.60;;;-3.64
74533;BMP180;63012;51.096;-115.366;2022-11-20T00:43:55;87312.20;;;-3.70
74533;BMP180;63012;51.096;-115.366;2022-11-20T00:46:26;87299.40;;;-3.70
74533;BMP180;63012;51.096;-115.366;2022-11-20T00:48:53;87310.60;;;-3.70
74533;BMP180;63012;51.096;-115.366;2022-11-20T00:51:24;87312.60;;;-3.80
74533;BMP180;63012;51.096;-115.366;2022-11-20T00:53:52;87298.60;;;-3.90
74533;BMP180;63012;51.096;-115.366;2022-11-20T00:56:21;87291.20;;;-3.90
74533;BMP180;63012;51.096;-115.366;2022-11-20T00:58:49;87293.40;;;-4.00
74533;BMP180;63012;51.096;-115.366;2022-11-20T01:01:19;87295.80;;;-4.08
74533;BMP180;63012;51.096;-115.366;2022-11-20T01:03:49;87288.40;;;-4.10
74533;BMP180;63012;51.096;-115.366;2022-11-20T01:06:25;87285.20;;;-4.10
74533;BMP180;63012;51.096;-115.366;2022-11-20T01:08:57;87290.80;;;-4.10
74533;BMP180;63012;51.096;-115.366;2022-11-20T01:11:28;87290.00;;;-4.10
74533;BMP180;63012;51.096;-115.366;2022-11-20T01:13:57;87291.60;;;-4.10
74533;BMP180;63012;51.096;-115.366;2022-11-20T01:16:32;87298.20;;;-4.10
74533;BMP180;63012;51.096;-115.366;2022-11-20T01:19:02;87292.20;;;-4.10
74533;BMP180;63012;51.096;-115.366;2022-11-20T01:21:35;87280.20;;;-4.10
74533;BMP180;63012;51.096;-115.366;2022-11-20T01:24:04;87280.00;;;-4.04
74533;BMP180;63012;51.096;-115.366;2022-11-20T01:26:35;87264.40;;;-4.00
74533;BMP180;63012;51.096;-115.366;2022-11-20T01:29:04;87272.60;;;-4.00
74533;BMP180;63012;51.096;-115.366;2022-11-20T01:31:35;87257.80;;;-4.02
74533;BMP180;63012;51.096;-115.366;2022-11-20T01:34:06;87262.40;;;-4.10
74533;BMP180;63012;51.096;-115.366;2022-11-20T01:36:36;87274.80;;;-4.10
74533;BMP180;63012;51.096;-115.366;2022-11-20T01:39:16;87272.60;;;-4.18
74533;BMP180;63012;51.096;-115.366;2022-11-20T01:41:45;87274.00;;;-4.20
74533;BMP180;63012;51.096;-115.366;2022-11-20T01:44:58;87267.60;;;-4.20
74533;BMP180;63012;51.096;-115.366;2022-11-20T01:47:46;87277.60;;;-4.26
74533;BMP180;63012;51.096;-115.366;2022-11-20T01:50:24;87281.40;;;-4.30
74533;BMP180;63012;51.096;-115.366;2022-11-20T01:53:07;87275.20;;;-4.28
74533;BMP180;63012;51.096;-115.366;2022-11-20T01:55:41;87285.00;;;-4.22
74533;BMP180;63012;51.096;-115.366;2022-11-20T01:58:09;87288.60;;;-4.30
74533;BMP180;63012;51.096;-115.366;2022-11-20T02:00:36;87289.00;;;-4.30
74533;BMP180;63012;51.096;-115.366;2022-11-20T02:03:13;87292.00;;;-4.30
74533;BMP180;63012;51.096;-115.366;2022-11-20T02:08:45;87293.00;;;-4.30
74533;BMP180;63012;51.096;-115.366;2022-11-20T02:11:12;87294.20;;;-4.30
74533;BMP180;63012;51.096;-115.366;2022-11-20T02:13:40;87294.00;;;-4.30
74533;BMP180;63012;51.096;-115.366;2022-11-20T02:16:24;87292.00;;;-4.40
74533;BMP180;63012;51.096;-115.366;2022-11-20T02:18:54;87301.80;;;-4.40
74533;BMP180;63012;51.096;-115.366;2022-11-20T02:21:40;87302.20;;;-4.50
74533;BMP180;63012;51.096;-115.366;2022-11-20T02:24:13;87302.40;;;-4.50
74533;BMP180;63012;51.096;-115.366;2022-11-20T02:27:06;87295.40;;;-4.50
74533;BMP180;63012;51.096;-115.366;2022-11-20T02:30:04;87314.20;;;-4.50
74533;BMP180;63012;51.096;-115.366;2022-11-20T02:32:37;87299.60;;;-4.60
74533;BMP180;63012;51.096;-115.366;2022-11-20T02:37:54;87318.60;;;-4.70
74533;BMP180;63012;51.096;-115.366;2022-11-20T02:40:21;87321.60;;;-4.80
74533;BMP180;63012;51.096;-115.366;2022-11-20T02:42:52;87319.00;;;-4.80
74533;BMP180;63012;51.096;-115.366;2022-11-20T02:45:20;87328.00;;;-4.70
74533;BMP180;63012;51.096;-115.366;2022-11-20T02:47:47;87306.80;;;-4.60
74533;BMP180;63012;51.096;-115.366;2022-11-20T02:50:14;87315.00;;;-4.60
74533;BMP180;63012;51.096;-115.366;2022-11-20T02:52:42;87331.40;;;-4.60
74533;BMP180;63012;51.096;-115.366;2022-11-20T02:55:09;87320.80;;;-4.50
74533;BMP180;63012;51.096;-115.366;2022-11-20T02:57:36;87331.20;;;-4.50
74533;BMP180;63012;51.096;-115.366;2022-11-20T03:00:05;87328.60;;;-4.50
74533;BMP180;63012;51.096;-115.366;2022-11-20T03:02:34;87318.00;;;-4.50
74533;BMP180;63012;51.096;-115.366;2022-11-20T03:05:01;87319.00;;;-4.40
74533;BMP180;63012;51.096;-115.366;2022-11-20T03:07:28;87332.20;;;-4.40
74533;BMP180;63012;51.096;-115.366;2022-11-20T03:09:55;87329.80;;;-4.44
74533;BMP180;63012;51.096;-115.366;2022-11-20T03:12:23;87328.20;;;-4.50
74533;BMP180;63012;51.096;-115.366;2022-11-20T03:14:50;87334.60;;;-4.54
74533;BMP180;63012;51.096;-115.366;2022-11-20T03:17:16;87336.00;;;-4.60
74533;BMP180;63012;51.096;-115.366;2022-11-20T03:19:43;87349.80;;;-4.68
74533;BMP180;63012;51.096;-115.366;2022-11-20T03:22:10;87337.60;;;-4.62
74533;BMP180;63012;51.096;-115.366;2022-11-20T03:24:37;87327.00;;;-4.60
74533;BMP180;63012;51.096;-115.366;2022-11-20T03:27:05;87319.40;;;-4.70
74533;BMP180;63012;51.096;-115.366;2022-11-20T03:29:32;87328.20;;;-4.70
74533;BMP180;63012;51.096;-115.366;2022-11-20T03:31:59;87327.60;;;-4.66
74533;BMP180;63012;51.096;-115.366;2022-11-20T03:34:26;87325.40;;;-4.60
74533;BMP180;63012;51.096;-115.366;2022-11-20T03:36:53;87328.20;;;-4.70
74533;BMP180;63012;51.096;-115.366;2022-11-20T03:39:20;87336.20;;;-4.78
74533;BMP180;63012;51.096;-115.366;2022-11-20T03:41:47;87337.40;;;-4.80
74533;BMP180;63012;51.096;-115.366;2022-11-20T03:44:14;87332.80;;;-4.82
74533;BMP180;63012;51.096;-115.366;2022-11-20T03:46:41;87321.60;;;-4.90
74533;BMP180;63012;51.096;-115.366;2022-11-20T03:49:08;87328.20;;;-5.00
74533;BMP180;63012;51.096;-115.366;2022-11-20T03:51:36;87318.40;;;-5.00
74533;BMP180;63012;51.096;-115.366;2022-11-20T03:54:08;87329.80;;;-5.10
74533;BMP180;63012;51.096;-115.366;2022-11-20T03:56:38;87334.20;;;-5.20
74533;BMP180;63012;51.096;-115.366;2022-11-20T03:59:06;87334.20;;;-5.20
74533;BMP180;63012;51.096;-115.366;2022-11-20T04:01:37;87326.00;;;-5.26
74533;BMP180;63012;51.096;-115.366;2022-11-20T04:04:04;87325.80;;;-5.30
74533;BMP180;63012;51.096;-115.366;2022-11-20T04:06:36;87331.40;;;-5.30
74533;BMP180;63012;51.096;-115.366;2022-11-20T04:09:05;87338.80;;;-5.40
74533;BMP180;63012;51.096;-115.366;2022-11-20T04:11:36;87342.60;;;-5.40
74533;BMP180;63012;51.096;-115.366;2022-11-20T04:14:13;87325.80;;;-5.40
74533;BMP180;63012;51.096;-115.366;2022-11-20T04:16:40;87332.00;;;-5.50
74533;BMP180;63012;51.096;-115.366;2022-11-20T04:19:12;87325.00;;;-5.50
74533;BMP180;63012;51.096;-115.366;2022-11-20T04:21:39;87315.60;;;-5.40
74533;BMP180;63012;51.096;-115.366;2022-11-20T04:24:07;87332.20;;;-5.40
74533;BMP180;63012;51.096;-115.366;2022-11-20T04:26:34;87337.00;;;-5.30
74533;BMP180;63012;51.096;-115.366;2022-11-20T04:29:02;87355.20;;;-5.16
74533;BMP180;63012;51.096;-115.366;2022-11-20T04:31:33;87351.00;;;-5.10
74533;BMP180;63012;51.096;-115.366;2022-11-20T04:34:03;87357.20;;;-5.20
74533;BMP180;63012;51.096;-115.366;2022-11-20T04:36:31;87365.60;;;-5.40
74533;BMP180;63012;51.096;-115.366;2022-11-20T04:39:04;87353.80;;;-5.50
74533;BMP180;63012;51.096;-115.366;2022-11-20T04:41:35;87362.20;;;-5.60
74533;BMP180;63012;51.096;-115.366;2022-11-20T04:44:05;87367.20;;;-5.70
74533;BMP180;63012;51.096;-115.366;2022-11-20T04:46:39;87366.20;;;-5.70
74533;BMP180;63012;51.096;-115.366;2022-11-20T04:49:07;87355.00;;;-5.80
74533;BMP180;63012;51.096;-115.366;2022-11-20T04:51:34;87351.00;;;-5.80
74533;BMP180;63012;51.096;-115.366;2022-11-20T04:54:01;87366.00;;;-5.78
74533;BMP180;63012;51.096;-115.366;2022-11-20T04:56:29;87367.00;;;-5.70
74533;BMP180;63012;51.096;-115.366;2022-11-20T04:59:00;87352.40;;;-5.60
74533;BMP180;63012;51.096;-115.366;2022-11-20T05:01:28;87355.00;;;-5.50
74533;BMP180;63012;51.096;-115.366;2022-11-20T05:03:55;87342.60;;;-5.40
74533;BMP180;63012;51.096;-115.366;2022-11-20T05:06:22;87343.60;;;-5.30
74533;BMP180;63012;51.096;-115.366;2022-11-20T05:08:49;87331.40;;;-5.30
74533;BMP180;63012;51.096;-115.366;2022-11-20T05:11:20;87342.60;;;-5.40
74533;BMP180;63012;51.096;-115.366;2022-11-20T05:13:49;87342.80;;;-5.40
74533;BMP180;63012;51.096;-115.366;2022-11-20T05:16:22;87340.00;;;-5.50
74533;BMP180;63012;51.096;-115.366;2022-11-20T05:18:51;87334.40;;;-5.60
74533;BMP180;63012;51.096;-115.366;2022-11-20T05:21:19;87335.00;;;-5.60
74533;BMP180;63012;51.096;-115.366;2022-11-20T05:23:47;87371.00;;;-5.70
74533;BMP180;63012;51.096;-115.366;2022-11-20T05:26:23;87365.80;;;-5.60
74533;BMP180;63012;51.096;-115.366;2022-11-20T05:28:51;87354.20;;;-5.60
74533;BMP180;63012;51.096;-115.366;2022-11-20T05:31:23;87366.20;;;-5.60
74533;BMP180;63012;51.096;-115.366;2022-11-20T05:33:51;87373.00;;;-5.70
74533;BMP180;63012;51.096;-115.366;2022-11-20T05:36:18;87344.60;;;-5.70
74533;BMP180;63012;51.096;-115.366;2022-11-20T05:38:45;87380.80;;;-5.70
74533;BMP180;63012;51.096;-115.366;2022-11-20T05:41:16;87369.40;;;-5.70
74533;BMP180;63012;51.096;-115.366;2022-11-20T05:43:46;87372.20;;;-5.70
74533;BMP180;63012;51.096;-115.366;2022-11-20T05:46:16;87362.80;;;-5.80
74533;BMP180;63012;51.096;-115.366;2022-11-20T05:48:45;87349.20;;;-5.90
74533;BMP180;63012;51.096;-115.366;2022-11-20T05:51:16;87359.20;;;-6.00
74533;BMP180;63012;51.096;-115.366;2022-11-20T05:53:44;87356.00;;;-6.10
74533;BMP180;63012;51.096;-115.366;2022-11-20T05:56:17;87363.00;;;-6.10
74533;BMP180;63012;51.096;-115.366;2022-11-20T05:58:46;87351.60;;;-6.14
74533;BMP180;63012;51.096;-115.366;2022-11-20T06:01:23;87355.40;;;-6.20
74533;BMP180;63012;51.096;-115.366;2022-11-20T06:03:51;87352.20;;;-6.20
74533;BMP180;63012;51.096;-115.366;2022-11-20T06:06:19;87350.60;;;-6.20
74533;BMP180;63012;51.096;-115.366;2022-11-20T06:08:47;87355.80;;;-6.30
74533;BMP180;63012;51.096;-115.366;2022-11-20T06:11:16;87342.40;;;-6.30
74533;BMP180;63012;51.096;-115.366;2022-11-20T06:13:44;87367.40;;;-6.20
74533;BMP180;63012;51.096;-115.366;2022-11-20T06:16:14;87341.20;;;-6.10
74533;BMP180;63012;51.096;-115.366;2022-11-20T06:18:42;87378.60;;;-6.00
74533;BMP180;63012;51.096;-115.366;2022-11-20T06:21:21;87367.40;;;-5.86
74533;BMP180;63012;51.096;-115.366;2022-11-20T06:23:51;87371.60;;;-5.80
74533;BMP180;63012;51.096;-115.366;2022-11-20T06:26:22;87348.60;;;-5.70
74533;BMP180;63012;51.096;-115.366;2022-11-20T06:28:51;87370.40;;;-5.68
74533;BMP180;63012;51.096;-115.366;2022-11-20T06:31:22;87396.40;;;-5.60
74533;BMP180;63012;51.096;-115.366;2022-11-20T06:33:50;87332.00;;;-5.70
74533;BMP180;63012;51.096;-115.366;2022-11-20T06:36:21;87376.40;;;-5.70
74533;BMP180;63012;51.096;-115.366;2022-11-20T06:38:49;87367.20;;;-5.70
74533;BMP180;63012;51.096;-115.366;2022-11-20T06:41:20;87360.80;;;-5.70
74533;BMP180;63012;51.096;-115.366;2022-11-20T06:43:47;87358.20;;;-5.70
74533;BMP180;63012;51.096;-115.366;2022-11-20T06:46:15;87360.80;;;-5.70
74533;BMP180;63012;51.096;-115.366;2022-11-20T06:48:49;87353.60;;;-5.80
74533;BMP180;63012;51.096;-115.366;2022-11-20T06:51:17;87364.80;;;-5.90
74533;BMP180;63012;51.096;-115.366;2022-11-20T06:53:44;87356.40;;;-6.00
74533;BMP180;63012;51.096;-115.366;2022-11-20T06:56:11;87368.20;;;-6.10
74533;BMP180;63012;51.096;-115.366;2022-11-20T06:58:39;87370.60;;;-6.10
74533;BMP180;63012;51.096;-115.366;2022-11-20T07:01:14;87365.00;;;-6.10
74533;BMP180;63012;51.096;-115.366;2022-11-20T07:03:42;87361.40;;;-6.10
74533;BMP180;63012;51.096;-115.366;2022-11-20T07:06:09;87361.80;;;-6.20
74533;BMP180;63012;51.096;-115.366;2022-11-20T07:08:37;87363.20;;;-6.24
74533;BMP180;63012;51.096;-115.366;2022-11-20T07:11:07;87360.40;;;-6.30
74533;BMP180;63012;51.096;-115.366;2022-11-20T07:13:35;87369.00;;;-6.30
74533;BMP180;63012;51.096;-115.366;2022-11-20T07:16:05;87350.80;;;-6.30
74533;BMP180;63012;51.096;-115.366;2022-11-20T07:18:33;87375.00;;;-6.30
74533;BMP180;63012;51.096;-115.366;2022-11-20T07:21:03;87339.80;;;-6.30
74533;BMP180;63012;51.096;-115.366;2022-11-20T07:23:31;87360.40;;;-6.40
74533;BMP180;63012;51.096;-115.366;2022-11-20T07:26:05;87355.60;;;-6.40
74533;BMP180;63012;51.096;-115.366;2022-11-20T07:28:33;87348.20;;;-6.44
74533;BMP180;63012;51.096;-115.366;2022-11-20T07:31:00;87360.20;;;-6.54
74533;BMP180;63012;51.096;-115.366;2022-11-20T07:33:27;87360.60;;;-6.70
74533;BMP180;63012;51.096;-115.366;2022-11-20T07:35:54;87351.00;;;-6.80
74533;BMP180;63012;51.096;-115.366;2022-11-20T07:38:21;87331.00;;;-6.84
74533;BMP180;63012;51.096;-115.366;2022-11-20T07:40:47;87354.60;;;-6.90
74533;BMP180;63012;51.096;-115.366;2022-11-20T07:43:15;87340.80;;;-7.00
74533;BMP180;63012;51.096;-115.366;2022-11-20T07:45:41;87337.20;;;-7.10
74533;BMP180;63012;51.096;-115.366;2022-11-20T07:48:08;87345.80;;;-7.10
74533;BMP180;63012;51.096;-115.366;2022-11-20T07:50:35;87340.60;;;-7.14
74533;BMP180;63012;51.096;-115.366;2022-11-20T07:53:06;87352.80;;;-7.10
74533;BMP180;63012;51.096;-115.366;2022-11-20T07:55:33;87343.80;;;-7.10
74533;BMP180;63012;51.096;-115.366;2022-11-20T07:58:01;87326.40;;;-7.00
74533;BMP180;63012;51.096;-115.366;2022-11-20T08:00:28;87331.60;;;-7.02
74533;BMP180;63012;51.096;-115.366;2022-11-20T08:02:55;87333.40;;;-7.00
74533;BMP180;63012;51.096;-115.366;2022-11-20T08:05:22;87334.80;;;-7.00
74533;BMP180;63012;51.096;-115.366;2022-11-20T08:07:49;87327.00;;;-6.90
74533;BMP180;63012;51.096;-115.366;2022-11-20T08:10:17;87309.60;;;-6.84
74533;BMP180;63012;51.096;-115.366;2022-11-20T08:12:51;87323.20;;;-6.80
74533;BMP180;63012;51.096;-115.366;2022-11-20T08:15:38;87315.00;;;-6.82
74533;BMP180;63012;51.096;-115.366;2022-11-20T08:18:09;87306.80;;;-6.80
74533;BMP180;63012;51.096;-115.366;2022-11-20T08:20:37;87316.60;;;-6.80
74533;BMP180;63012;51.096;-115.366;2022-11-20T08:23:07;87305.20;;;-6.80
74533;BMP180;63012;51.096;-115.366;2022-11-20T08:25:36;87298.40;;;-6.80
74533;BMP180;63012;51.096;-115.366;2022-11-20T08:28:07;87299.40;;;-6.90
74533;BMP180;63012;51.096;-115.366;2022-11-20T08:30:35;87297.20;;;-6.96
74533;BMP180;63012;51.096;-115.366;2022-11-20T08:33:08;87293.60;;;-7.00
74533;BMP180;63012;51.096;-115.366;2022-11-20T08:35:37;87302.80;;;-7.10
74533;BMP180;63012;51.096;-115.366;2022-11-20T08:38:05;87300.00;;;-7.18
74533;BMP180;63012;51.096;-115.366;2022-11-20T08:40:33;87311.00;;;-7.28
74533;BMP180;63012;51.096;-115.366;2022-11-20T08:43:00;87314.40;;;-7.30
74533;BMP180;63012;51.096;-115.366;2022-11-20T08:45:27;87312.20;;;-7.40
74533;BMP180;63012;51.096;-115.366;2022-11-20T08:47:59;87318.60;;;-7.50
74533;BMP180;63012;51.096;-115.366;2022-11-20T08:50:27;87318.60;;;-7.50
74533;BMP180;63012;51.096;-115.366;2022-11-20T08:52:54;87320.60;;;-7.50
74533;BMP180;63012;51.096;-115.366;2022-11-20T08:55:21;87323.00;;;-7.50
74533;BMP180;63012;51.096;-115.366;2022-11-20T08:57:47;87320.60;;;-7.50
74533;BMP180;63012;51.096;-115.366;2022-11-20T09:00:15;87321.80;;;-7.48
74533;BMP180;63012;51.096;-115.366;2022-11-20T09:02:42;87321.40;;;-7.42
74533;BMP180;63012;51.096;-115.366;2022-11-20T09:05:09;87315.00;;;-7.40
74533;BMP180;63012;51.096;-115.366;2022-11-20T09:07:36;87319.60;;;-7.40
74533;BMP180;63012;51.096;-115.366;2022-11-20T09:10:04;87320.20;;;-7.40
74533;BMP180;63012;51.096;-115.366;2022-11-20T09:12:31;87324.60;;;-7.40
74533;BMP180;63012;51.096;-115.366;2022-11-20T09:14:58;87321.80;;;-7.40
74533;BMP180;63012;51.096;-115.366;2022-11-20T09:17:25;87320.40;;;-7.40
74533;BMP180;63012;51.096;-115.366;2022-11-20T09:19:53;87330.20;;;-7.38
74533;BMP180;63012;51.096;-115.366;2022-11-20T09:22:20;87316.00;;;-7.40
74533;BMP180;63012;51.096;-115.366;2022-11-20T09:24:47;87330.00;;;-7.40
74533;BMP180;63012;51.096;-115.366;2022-11-20T09:27:14;87324.40;;;-7.40
74533;BMP180;63012;51.096;-115.366;2022-11-20T09:29:41;87316.60;;;-7.40
74533;BMP180;63012;51.096;-115.366;2022-11-20T09:32:08;87307.80;;;-7.40
74533;BMP180;63012;51.096;-115.366;2022-11-20T09:34:35;87309.60;;;-7.40
74533;BMP180;63012;51.096;-115.366;2022-11-20T09:37:02;87304.60;;;-7.46
74533;BMP180;63012;51.096;-115.366;2022-11-20T09:39:29;87317.20;;;-7.50
74533;BMP180;63012;51.096;-115.366;2022-11-20T09:45:10;87312.20;;;-7.50
74533;BMP180;63012;51.096;-115.366;2022-11-20T09:48:15;87325.00;;;-7.54
74533;BMP180;63012;51.096;-115.366;2022-11-20T09:56:11;87310.60;;;-7.50
74533;BMP180;63012;51.096;-115.366;2022-11-20T09:58:47;87314.00;;;-7.50
74533;BMP180;63012;51.096;-115.366;2022-11-20T10:01:36;87317.80;;;-7.50
74533;BMP180;63012;51.096;-115.366;2022-11-20T10:04:17;87328.60;;;-7.50
74533;BMP180;63012;51.096;-115.366;2022-11-20T10:07:11;87342.00;;;-7.50
74533;BMP180;63012;51.096;-115.366;2022-11-20T10:09:56;87335.80;;;-7.50
74533;BMP180;63012;51.096;-115.366;2022-11-20T10:16:26;87326.00;;;-7.50
74533;BMP180;63012;51.096;-115.366;2022-11-20T10:19:28;87339.60;;;-7.50
74533;BMP180;63012;51.096;-115.366;2022-11-20T10:25:20;87331.40;;;-7.50
74533;BMP180;63012;51.096;-115.366;2022-11-20T10:28:23;87327.80;;;-7.46
74533;BMP180;63012;51.096;-115.366;2022-11-20T10:31:03;87328.20;;;-7.40
74533;BMP180;63012;51.096;-115.366;2022-11-20T10:33:41;87330.00;;;-7.40
74533;BMP180;63012;51.096;-115.366;2022-11-20T10:36:27;87314.40;;;-7.34
74533;BMP180;63012;51.096;-115.366;2022-11-20T10:39:34;87335.00;;;-7.30
74533;BMP180;63012;51.096;-115.366;2022-11-20T10:42:02;87325.20;;;-7.30
74533;BMP180;63012;51.096;-115.366;2022-11-20T10:44:36;87315.80;;;-7.30
74533;BMP180;63012;51.096;-115.366;2022-11-20T10:47:22;87329.60;;;-7.20
74533;BMP180;63012;51.096;-115.366;2022-11-20T10:49:55;87321.20;;;-7.20
74533;BMP180;63012;51.096;-115.366;2022-11-20T10:56:19;87330.60;;;-7.10
74533;BMP180;63012;51.096;-115.366;2022-11-20T10:59:47;87330.00;;;-7.10
74533;BMP180;63012;51.096;-115.366;2022-11-20T11:02:24;87337.40;;;-7.10
74533;BMP180;63012;51.096;-115.366;2022-11-20T11:04:54;87329.80;;;-7.10
74533;BMP180;63012;51.096;-115.366;2022-11-20T11:07:39;87329.60;;;-7.10
74533;BMP180;63012;51.096;-115.366;2022-11-20T11:13:07;87326.80;;;-7.14
74533;BMP180;63012;51.096;-115.366;2022-11-20T11:15:45;87335.80;;;-7.20
74533;BMP180;63012;51.096;-115.366;2022-11-20T11:18:26;87322.60;;;-7.20
74533;BMP180;63012;51.096;-115.366;2022-11-20T11:20:55;87338.40;;;-7.20
74533;BMP180;63012;51.096;-115.366;2022-11-20T11:23:39;87331.60;;;-7.20
74533;BMP180;63012;51.096;-115.366;2022-11-20T11:26:23;87332.80;;;-7.30
74533;BMP180;63012;51.096;-115.366;2022-11-20T11:29:03;87347.00;;;-7.30
74533;BMP180;63012;51.096;-115.366;2022-11-20T11:31:33;87340.40;;;-7.30
74533;BMP180;63012;51.096;-115.366;2022-11-20T11:34:12;87341.60;;;-7.30
74533;BMP180;63012;51.096;-115.366;2022-11-20T11:36:39;87342.40;;;-7.30
74533;BMP180;63012;51.096;-115.366;2022-11-20T11:39:14;87339.00;;;-7.30
74533;BMP180;63012;51.096;-115.366;2022-11-20T11:41:42;87351.20;;;-7.28
74533;BMP180;63012;51.096;-115.366;2022-11-20T11:44:32;87350.20;;;-7.20
74533;BMP180;63012;51.096;-115.366;2022-11-20T11:53:19;87322.40;;;-7.28
74533;BMP180;63012;51.096;-115.366;2022-11-20T11:56:10;87325.60;;;-7.30
74533;BMP180;63012;51.096;-115.366;2022-11-20T11:58:50;87327.60;;;-7.30
74533;BMP180;63012;51.096;-115.366;2022-11-20T12:01:49;87338.00;;;-7.30
74533;BMP180;63012;51.096;-115.366;2022-11-20T12:04:37;87327.80;;;-7.32
74533;BMP180;63012;51.096;-115.366;2022-11-20T12:08:23;87325.00;;;-7.36
74533;BMP180;63012;51.096;-115.366;2022-11-20T12:13:41;87328.80;;;-7.40
74533;BMP180;63012;51.096;-115.366;2022-11-20T12:16:14;87330.40;;;-7.48
74533;BMP180;63012;51.096;-115.366;2022-11-20T12:18:43;87324.60;;;-7.50
74533;BMP180;63012;51.096;-115.366;2022-11-20T12:21:38;87309.00;;;-7.50
74533;BMP180;63012;51.096;-115.366;2022-11-20T12:24:25;87308.00;;;-7.50
74533;BMP180;63012;51.096;-115.366;2022-11-20T12:27:34;87311.20;;;-7.50
74533;BMP180;63012;51.096;-115.366;2022-11-20T12:30:08;87306.80;;;-7.54
74533;BMP180;63012;51.096;-115.366;2022-11-20T12:35:57;87288.80;;;-7.60
74533;BMP180;63012;51.096;-115.366;2022-11-20T12:48:25;87283.80;;;-7.50
74533;BMP180;63012;51.096;-115.366;2022-11-20T12:54:37;87279.80;;;-7.50
74533;BMP180;63012;51.096;-115.366;2022-11-20T12:57:50;87299.40;;;-7.42
74533;BMP180;63012;51.096;-115.366;2022-11-20T13:00:22;87301.40;;;-7.44
74533;BMP180;63012;51.096;-115.366;2022-11-20T13:03:47;87309.80;;;-7.42
74533;BMP180;63012;51.096;-115.366;2022-11-20T13:06:19;87312.80;;;-7.40
74533;BMP180;63012;51.096;-115.366;2022-11-20T13:08:54;87316.40;;;-7.40
74533;BMP180;63012;51.096;-115.366;2022-11-20T13:16:38;87336.00;;;-7.40
74533;BMP180;63012;51.096;-115.366;2022-11-20T13:19:15;87341.60;;;-7.40
74533;BMP180;63012;51.096;-115.366;2022-11-20T13:21:48;87347.00;;;-7.40
74533;BMP180;63012;51.096;-115.366;2022-11-20T13:29:44;87341.00;;;-7.50
74533;BMP180;63012;51.096;-115.366;2022-11-20T13:32:18;87338.60;;;-7.50
74533;BMP180;63012;51.096;-115.366;2022-11-20T13:35:00;87347.00;;;-7.54
74533;BMP180;63012;51.096;-115.366;2022-11-20T13:37:37;87340.00;;;-7.60
74533;BMP180;63012;51.096;-115.366;2022-11-20T13:45:26;87358.60;;;-7.60
74533;BMP180;63012;51.096;-115.366;2022-11-20T13:47:55;87339.40;;;-7.60
74533;BMP180;63012;51.096;-115.366;2022-11-20T13:59:50;87337.20;;;-7.60
74533;BMP180;63012;51.096;-115.366;2022-11-20T14:02:25;87330.80;;;-7.66
74533;BMP180;63012;51.096;-115.366;2022-11-20T14:04:59;87333.60;;;-7.70
74533;BMP180;63012;51.096;-115.366;2022-11-20T14:07:41;87332.00;;;-7.70
74533;BMP180;63012;51.096;-115.366;2022-11-20T14:10:29;87318.40;;;-7.70
74533;BMP180;63012;51.096;-115.366;2022-11-20T14:12:56;87298.00;;;-7.70
74533;BMP180;63012;51.096;-115.366;2022-11-20T14:15:33;87295.20;;;-7.70
74533;BMP180;63012;51.096;-115.366;2022-11-20T14:18:19;87295.80;;;-7.70
74533;BMP180;63012;51.096;-115.366;2022-11-20T14:20:46;87287.60;;;-7.70
74533;BMP180;63012;51.096;-115.366;2022-11-20T14:23:24;87294.60;;;-7.70
74533;BMP180;63012;51.096;-115.366;2022-11-20T14:25:51;87305.20;;;-7.70
74533;BMP180;63012;51.096;-115.366;2022-11-20T14:28:28;87301.00;;;-7.74
74533;BMP180;63012;51.096;-115.366;2022-11-20T14:30:56;87297.20;;;-7.80
74533;BMP180;63012;51.096;-115.366;2022-11-20T14:33:26;87295.00;;;-7.80
74533;BMP180;63012;51.096;-115.366;2022-11-20T14:35:57;87307.60;;;-7.80
74533;BMP180;63012;51.096;-115.366;2022-11-20T14:38:31;87320.20;;;-7.84
74533;BMP180;63012;51.096;-115.366;2022-11-20T14:41:20;87310.80;;;-7.80
74533;BMP180;63012;51.096;-115.366;2022-11-20T14:43:59;87303.00;;;-7.80
74533;BMP180;63012;51.096;-115.366;2022-11-20T14:46:27;87306.60;;;-7.80
74533;BMP180;63012;51.096;-115.366;2022-11-20T14:49:00;87295.40;;;-7.74
74533;BMP180;63012;51.096;-115.366;2022-11-20T14:51:37;87295.60;;;-7.70
74533;BMP180;63012;51.096;-115.366;2022-11-20T14:56:39;87310.20;;;-7.60
74533;BMP180;63012;51.096;-115.366;2022-11-20T14:59:08;87304.80;;;-7.60
74533;BMP180;63012;51.096;-115.366;2022-11-20T15:01:35;87320.00;;;-7.50
74533;BMP180;63012;51.096;-115.366;2022-11-20T15:04:11;87318.00;;;-7.50
74533;BMP180;63012;51.096;-115.366;2022-11-20T15:06:52;87334.60;;;-7.46
74533;BMP180;63012;51.096;-115.366;2022-11-20T15:09:19;87323.80;;;-7.48
74533;BMP180;63012;51.096;-115.366;2022-11-20T15:12:01;87334.80;;;-7.50
74533;BMP180;63012;51.096;-115.366;2022-11-20T15:14:31;87331.60;;;-7.52
74533;BMP180;63012;51.096;-115.366;2022-11-20T15:17:01;87324.00;;;-7.52
74533;BMP180;63012;51.096;-115.366;2022-11-20T15:19:28;87323.20;;;-7.52
74533;BMP180;63012;51.096;-115.366;2022-11-20T15:21:56;87342.40;;;-7.52
74533;BMP180;63012;51.096;-115.366;2022-11-20T15:24:23;87344.00;;;-7.50